Terminal Aerodrome Forecast
Issued by NWS

Home | Current Version | Previous Version | Text Only | Print | Product List | Glossary On
Versions: 1 2 3 4 5 6 7 8 9 10 11
000
FTUS46 KSTO 280500
TAFSAC
TAF
KSAC 280532Z 2806/2906 VRB03KT 5SM BR BKN200
      TEMPO 2808/2812 3SM BR
     FM281200 VRB03KT 3SM BR BKN200
      TEMPO 2812/2816 1SM BR
     FM281900 31005KT P6SM FEW250=

USA.gov is the U.S. government's official web portal to all federal, state and local government web resources and services.